New Rochelle, New York
Current Conditions -  °F | °C
As of 4:51 PM on Saturday 20 Dec 2014 (Local Time) from KLGA Reporting Station
Overcast Overcast  
Wind Chill: 28°   Ceiling: 3200
Heat Index: 33°   Visibility: 10mi
Dew Point: 21°   Wind: 6mph
Humidity: 61%   Direction: 20°NNE
Pressure: 30.27"   Gusts: NA
Location:  40.92°N, 73.79°W
Report Text: KLGA 202151Z 02005KT 10SM OVC032 01/M06 A3027 RMK AO2 SLP249 T00061061
Loading
Personal Weather Stations






























Interactive Weather Map New forecast layout! Learn more

10-Day Weather Forecast

Advertisements
Track Severe Weather on mobile